sensor_id;sensor_type;location;lat;lon;timestamp;temperature;humidity
12704;DHT22;6416;52.182;7.650;2023-04-25T00:00:58;11.50;71.90
12704;DHT22;6416;52.182;7.650;2023-04-25T00:03:23;11.50;72.00
12704;DHT22;6416;52.182;7.650;2023-04-25T00:05:48;11.50;72.10
12704;DHT22;6416;52.182;7.650;2023-04-25T00:08:14;11.50;72.10
12704;DHT22;6416;52.182;7.650;2023-04-25T00:10:39;11.50;72.20
12704;DHT22;6416;52.182;7.650;2023-04-25T00:13:05;11.50;72.30
12704;DHT22;6416;52.182;7.650;2023-04-25T00:15:30;11.50;72.40
12704;DHT22;6416;52.182;7.650;2023-04-25T00:17:56;11.50;72.50
12704;DHT22;6416;52.182;7.650;2023-04-25T00:20:22;11.50;72.60
12704;DHT22;6416;52.182;7.650;2023-04-25T00:22:47;11.50;72.70
12704;DHT22;6416;52.182;7.650;2023-04-25T00:25:13;11.40;72.70
12704;DHT22;6416;52.182;7.650;2023-04-25T00:27:38;11.40;72.80
12704;DHT22;6416;52.182;7.650;2023-04-25T00:30:04;11.40;72.90
12704;DHT22;6416;52.182;7.650;2023-04-25T00:32:30;11.40;72.90
12704;DHT22;6416;52.182;7.650;2023-04-25T00:34:55;11.40;73.00
12704;DHT22;6416;52.182;7.650;2023-04-25T00:37:21;11.40;73.00
12704;DHT22;6416;52.182;7.650;2023-04-25T00:39:46;11.40;73.10
12704;DHT22;6416;52.182;7.650;2023-04-25T00:42:12;11.40;73.20
12704;DHT22;6416;52.182;7.650;2023-04-25T00:44:38;11.40;73.30
12704;DHT22;6416;52.182;7.650;2023-04-25T00:47:04;11.40;73.30
12704;DHT22;6416;52.182;7.650;2023-04-25T00:49:30;11.40;73.50
12704;DHT22;6416;52.182;7.650;2023-04-25T00:51:56;11.40;73.60
12704;DHT22;6416;52.182;7.650;2023-04-25T00:54:22;11.40;73.70
12704;DHT22;6416;52.182;7.650;2023-04-25T00:56:47;11.30;73.70
12704;DHT22;6416;52.182;7.650;2023-04-25T00:59:15;11.40;73.90
12704;DHT22;6416;52.182;7.650;2023-04-25T01:01:41;11.40;74.00
12704;DHT22;6416;52.182;7.650;2023-04-25T01:04:07;11.40;73.90
12704;DHT22;6416;52.182;7.650;2023-04-25T01:06:33;11.40;73.90
12704;DHT22;6416;52.182;7.650;2023-04-25T01:08:59;11.40;73.90
12704;DHT22;6416;52.182;7.650;2023-04-25T01:11:25;11.40;73.80
12704;DHT22;6416;52.182;7.650;2023-04-25T01:13:50;11.30;73.80
12704;DHT22;6416;52.182;7.650;2023-04-25T01:16:16;11.30;73.90
12704;DHT22;6416;52.182;7.650;2023-04-25T01:18:42;11.30;73.90
12704;DHT22;6416;52.182;7.650;2023-04-25T01:21:11;11.40;74.00
12704;DHT22;6416;52.182;7.650;2023-04-25T01:23:39;11.30;74.00
12704;DHT22;6416;52.182;7.650;2023-04-25T01:26:06;11.30;74.10
12704;DHT22;6416;52.182;7.650;2023-04-25T01:28:33;11.30;74.00
12704;DHT22;6416;52.182;7.650;2023-04-25T01:30:59;11.30;74.10
12704;DHT22;6416;52.182;7.650;2023-04-25T01:33:24;11.30;74.00
12704;DHT22;6416;52.182;7.650;2023-04-25T01:35:50;11.30;73.90
12704;DHT22;6416;52.182;7.650;2023-04-25T01:38:15;11.30;73.90
12704;DHT22;6416;52.182;7.650;2023-04-25T01:40:41;11.30;73.90
12704;DHT22;6416;52.182;7.650;2023-04-25T01:43:09;11.30;73.80
12704;DHT22;6416;52.182;7.650;2023-04-25T01:45:34;11.30;73.80
12704;DHT22;6416;52.182;7.650;2023-04-25T01:48:00;11.20;73.60
12704;DHT22;6416;52.182;7.650;2023-04-25T01:50:25;11.20;73.60
12704;DHT22;6416;52.182;7.650;2023-04-25T01:52:51;11.20;73.60
12704;DHT22;6416;52.182;7.650;2023-04-25T01:55:16;11.20;73.50
12704;DHT22;6416;52.182;7.650;2023-04-25T01:57:42;11.20;73.50
12704;DHT22;6416;52.182;7.650;2023-04-25T02:00:08;11.10;73.40
12704;DHT22;6416;52.182;7.650;2023-04-25T02:02:33;11.10;73.40
12704;DHT22;6416;52.182;7.650;2023-04-25T02:04:59;11.10;73.40
12704;DHT22;6416;52.182;7.650;2023-04-25T02:07:26;11.10;73.40
12704;DHT22;6416;52.182;7.650;2023-04-25T02:09:51;11.00;73.30
12704;DHT22;6416;52.182;7.650;2023-04-25T02:12:17;11.00;73.40
12704;DHT22;6416;52.182;7.650;2023-04-25T02:14:42;11.00;73.30
12704;DHT22;6416;52.182;7.650;2023-04-25T02:17:08;11.00;73.40
12704;DHT22;6416;52.182;7.650;2023-04-25T02:19:33;11.00;73.40
12704;DHT22;6416;52.182;7.650;2023-04-25T02:21:59;11.00;73.30
12704;DHT22;6416;52.182;7.650;2023-04-25T02:24:24;11.00;73.30
12704;DHT22;6416;52.182;7.650;2023-04-25T02:26:50;10.90;73.30
12704;DHT22;6416;52.182;7.650;2023-04-25T02:29:16;10.90;73.20
12704;DHT22;6416;52.182;7.650;2023-04-25T02:31:41;11.00;73.30
12704;DHT22;6416;52.182;7.650;2023-04-25T02:34:07;10.90;73.20
12704;DHT22;6416;52.182;7.650;2023-04-25T02:36:32;10.90;73.30
12704;DHT22;6416;52.182;7.650;2023-04-25T02:38:58;10.80;73.10
12704;DHT22;6416;52.182;7.650;2023-04-25T02:41:23;10.80;73.20
12704;DHT22;6416;52.182;7.650;2023-04-25T02:43:49;10.80;73.20
12704;DHT22;6416;52.182;7.650;2023-04-25T02:46:14;10.70;73.20
12704;DHT22;6416;52.182;7.650;2023-04-25T02:48:40;10.70;73.20
12704;DHT22;6416;52.182;7.650;2023-04-25T02:51:05;10.70;73.30
12704;DHT22;6416;52.182;7.650;2023-04-25T02:53:31;10.70;73.30
12704;DHT22;6416;52.182;7.650;2023-04-25T02:55:56;10.70;73.30
12704;DHT22;6416;52.182;7.650;2023-04-25T02:58:22;10.70;73.30
12704;DHT22;6416;52.182;7.650;2023-04-25T03:00:47;10.70;73.40
12704;DHT22;6416;52.182;7.650;2023-04-25T03:03:13;10.60;73.30
12704;DHT22;6416;52.182;7.650;2023-04-25T03:05:38;10.60;73.40
12704;DHT22;6416;52.182;7.650;2023-04-25T03:08:04;10.60;74.20
12704;DHT22;6416;52.182;7.650;2023-04-25T03:10:29;10.60;73.50
12704;DHT22;6416;52.182;7.650;2023-04-25T03:12:55;10.60;73.60
12704;DHT22;6416;52.182;7.650;2023-04-25T03:15:20;10.60;73.60
12704;DHT22;6416;52.182;7.650;2023-04-25T03:17:46;10.60;73.60
12704;DHT22;6416;52.182;7.650;2023-04-25T03:20:11;10.60;73.60
12704;DHT22;6416;52.182;7.650;2023-04-25T03:22:37;10.60;73.60
12704;DHT22;6416;52.182;7.650;2023-04-25T03:25:02;10.60;73.60
12704;DHT22;6416;52.182;7.650;2023-04-25T03:27:28;10.60;73.60
12704;DHT22;6416;52.182;7.650;2023-04-25T03:29:53;10.60;73.60
12704;DHT22;6416;52.182;7.650;2023-04-25T03:32:19;10.50;73.40
12704;DHT22;6416;52.182;7.650;2023-04-25T03:34:44;10.50;73.40
12704;DHT22;6416;52.182;7.650;2023-04-25T03:37:10;10.50;73.40
12704;DHT22;6416;52.182;7.650;2023-04-25T03:39:35;10.50;73.50
12704;DHT22;6416;52.182;7.650;2023-04-25T03:42:01;10.50;73.50
12704;DHT22;6416;52.182;7.650;2023-04-25T03:44:26;10.50;73.50
12704;DHT22;6416;52.182;7.650;2023-04-25T03:46:52;10.50;73.40
12704;DHT22;6416;52.182;7.650;2023-04-25T03:49:17;10.50;73.50
12704;DHT22;6416;52.182;7.650;2023-04-25T03:51:42;10.40;73.30
12704;DHT22;6416;52.182;7.650;2023-04-25T03:54:08;10.50;73.50
12704;DHT22;6416;52.182;7.650;2023-04-25T03:56:33;10.50;73.50
12704;DHT22;6416;52.182;7.650;2023-04-25T03:58:59;10.40;73.30
12704;DHT22;6416;52.182;7.650;2023-04-25T04:01:24;10.40;73.30
12704;DHT22;6416;52.182;7.650;2023-04-25T04:03:50;10.40;73.30
12704;DHT22;6416;52.182;7.650;2023-04-25T04:06:16;10.40;73.30
12704;DHT22;6416;52.182;7.650;2023-04-25T04:08:41;10.40;73.30
12704;DHT22;6416;52.182;7.650;2023-04-25T04:11:07;10.30;73.20
12704;DHT22;6416;52.182;7.650;2023-04-25T04:13:32;10.40;73.30
12704;DHT22;6416;52.182;7.650;2023-04-25T04:15:58;10.30;73.20
12704;DHT22;6416;52.182;7.650;2023-04-25T04:18:23;10.30;73.20
12704;DHT22;6416;52.182;7.650;2023-04-25T04:20:49;10.30;73.20
12704;DHT22;6416;52.182;7.650;2023-04-25T04:23:14;10.30;73.30
12704;DHT22;6416;52.182;7.650;2023-04-25T04:25:40;10.30;73.30
12704;DHT22;6416;52.182;7.650;2023-04-25T04:28:06;10.30;73.30
12704;DHT22;6416;52.182;7.650;2023-04-25T04:30:32;10.20;73.20
12704;DHT22;6416;52.182;7.650;2023-04-25T04:32:57;10.20;73.20
12704;DHT22;6416;52.182;7.650;2023-04-25T04:35:23;10.20;73.20
12704;DHT22;6416;52.182;7.650;2023-04-25T04:37:49;10.20;73.30
12704;DHT22;6416;52.182;7.650;2023-04-25T04:40:15;10.20;73.30
12704;DHT22;6416;52.182;7.650;2023-04-25T04:42:41;10.20;73.30
12704;DHT22;6416;52.182;7.650;2023-04-25T04:45:07;10.20;73.30
12704;DHT22;6416;52.182;7.650;2023-04-25T04:47:33;10.20;73.40
12704;DHT22;6416;52.182;7.650;2023-04-25T04:49:59;10.20;73.40
12704;DHT22;6416;52.182;7.650;2023-04-25T04:52:24;10.20;73.40
12704;DHT22;6416;52.182;7.650;2023-04-25T04:54:49;10.20;73.40
12704;DHT22;6416;52.182;7.650;2023-04-25T04:57:15;10.20;73.50
12704;DHT22;6416;52.182;7.650;2023-04-25T04:59:40;10.20;73.40
12704;DHT22;6416;52.182;7.650;2023-04-25T05:02:06;10.30;73.50
12704;DHT22;6416;52.182;7.650;2023-04-25T05:04:31;10.20;73.50
12704;DHT22;6416;52.182;7.650;2023-04-25T05:06:57;10.20;73.50
12704;DHT22;6416;52.182;7.650;2023-04-25T05:09:22;10.20;73.50
12704;DHT22;6416;52.182;7.650;2023-04-25T05:11:48;10.30;73.60
12704;DHT22;6416;52.182;7.650;2023-04-25T05:14:13;10.30;73.70
12704;DHT22;6416;52.182;7.650;2023-04-25T05:16:39;10.30;73.60
12704;DHT22;6416;52.182;7.650;2023-04-25T05:19:04;10.30;73.60
12704;DHT22;6416;52.182;7.650;2023-04-25T05:21:30;10.30;73.50
12704;DHT22;6416;52.182;7.650;2023-04-25T05:23:55;10.30;73.60
12704;DHT22;6416;52.182;7.650;2023-04-25T05:26:20;10.40;73.60
12704;DHT22;6416;52.182;7.650;2023-04-25T05:28:46;10.40;73.50
12704;DHT22;6416;52.182;7.650;2023-04-25T05:31:12;10.40;73.50
12704;DHT22;6416;52.182;7.650;2023-04-25T05:33:37;10.40;73.50
12704;DHT22;6416;52.182;7.650;2023-04-25T05:36:03;10.30;73.60
12704;DHT22;6416;52.182;7.650;2023-04-25T05:38:28;10.30;73.50
12704;DHT22;6416;52.182;7.650;2023-04-25T05:40:54;10.40;73.40
12704;DHT22;6416;52.182;7.650;2023-04-25T05:43:19;10.40;73.30
12704;DHT22;6416;52.182;7.650;2023-04-25T05:45:45;10.40;73.30
12704;DHT22;6416;52.182;7.650;2023-04-25T05:48:10;10.50;73.40
12704;DHT22;6416;52.182;7.650;2023-04-25T05:50:36;10.50;73.40
12704;DHT22;6416;52.182;7.650;2023-04-25T05:53:01;10.50;73.30
12704;DHT22;6416;52.182;7.650;2023-04-25T05:55:27;10.60;73.30
12704;DHT22;6416;52.182;7.650;2023-04-25T05:57:52;10.60;73.20
12704;DHT22;6416;52.182;7.650;2023-04-25T06:00:17;10.60;73.10
12704;DHT22;6416;52.182;7.650;2023-04-25T06:02:43;10.60;73.10
12704;DHT22;6416;52.182;7.650;2023-04-25T06:05:08;10.70;73.20
12704;DHT22;6416;52.182;7.650;2023-04-25T06:07:34;10.60;73.10
12704;DHT22;6416;52.182;7.650;2023-04-25T06:10:00;10.60;73.10
12704;DHT22;6416;52.182;7.650;2023-04-25T06:12:25;10.70;73.30
12704;DHT22;6416;52.182;7.650;2023-04-25T06:14:50;10.90;73.50
12704;DHT22;6416;52.182;7.650;2023-04-25T06:17:16;11.00;73.50
12704;DHT22;6416;52.182;7.650;2023-04-25T06:19:41;11.00;73.30
12704;DHT22;6416;52.182;7.650;2023-04-25T06:22:07;11.10;73.00
12704;DHT22;6416;52.182;7.650;2023-04-25T06:24:33;11.20;72.90
12704;DHT22;6416;52.182;7.650;2023-04-25T06:26:59;11.20;72.90
12704;DHT22;6416;52.182;7.650;2023-04-25T06:29:24;11.30;73.00
12704;DHT22;6416;52.182;7.650;2023-04-25T06:31:50;11.40;73.10
12704;DHT22;6416;52.182;7.650;2023-04-25T06:34:15;11.40;73.00
12704;DHT22;6416;52.182;7.650;2023-04-25T06:36:41;11.50;72.80
12704;DHT22;6416;52.182;7.650;2023-04-25T06:39:06;11.60;72.70
12704;DHT22;6416;52.182;7.650;2023-04-25T06:41:32;11.60;72.60
12704;DHT22;6416;52.182;7.650;2023-04-25T06:43:57;11.70;72.70
12704;DHT22;6416;52.182;7.650;2023-04-25T06:46:23;11.80;72.80
12704;DHT22;6416;52.182;7.650;2023-04-25T06:48:48;11.80;72.60
12704;DHT22;6416;52.182;7.650;2023-04-25T06:51:14;11.90;72.70
12704;DHT22;6416;52.182;7.650;2023-04-25T06:53:40;12.00;72.50
12704;DHT22;6416;52.182;7.650;2023-04-25T06:56:05;12.10;72.50
12704;DHT22;6416;52.182;7.650;2023-04-25T06:58:31;12.20;72.50
12704;DHT22;6416;52.182;7.650;2023-04-25T07:00:57;12.40;72.40
12704;DHT22;6416;52.182;7.650;2023-04-25T07:03:22;12.40;72.20
12704;DHT22;6416;52.182;7.650;2023-04-25T07:05:48;12.50;72.10
12704;DHT22;6416;52.182;7.650;2023-04-25T07:08:13;12.60;72.20
12704;DHT22;6416;52.182;7.650;2023-04-25T07:10:39;12.70;71.90
12704;DHT22;6416;52.182;7.650;2023-04-25T07:13:04;12.80;72.00
12704;DHT22;6416;52.182;7.650;2023-04-25T07:15:30;12.90;71.90
12704;DHT22;6416;52.182;7.650;2023-04-25T07:17:55;13.00;71.70
12704;DHT22;6416;52.182;7.650;2023-04-25T07:20:20;13.10;71.30
12704;DHT22;6416;52.182;7.650;2023-04-25T07:22:46;13.30;70.80
12704;DHT22;6416;52.182;7.650;2023-04-25T07:25:11;13.30;70.40
12704;DHT22;6416;52.182;7.650;2023-04-25T07:27:37;13.30;69.90
12704;DHT22;6416;52.182;7.650;2023-04-25T07:30:03;13.40;70.40
12704;DHT22;6416;52.182;7.650;2023-04-25T07:32:29;13.40;69.10
12704;DHT22;6416;52.182;7.650;2023-04-25T07:34:54;13.40;69.20
12704;DHT22;6416;52.182;7.650;2023-04-25T07:37:20;13.40;68.90
12704;DHT22;6416;52.182;7.650;2023-04-25T07:39:45;13.50;69.00
12704;DHT22;6416;52.182;7.650;2023-04-25T07:42:11;13.60;69.40
12704;DHT22;6416;52.182;7.650;2023-04-25T07:44:36;13.70;70.00
12704;DHT22;6416;52.182;7.650;2023-04-25T07:47:02;13.90;70.90
12704;DHT22;6416;52.182;7.650;2023-04-25T07:49:27;14.10;72.10
12704;DHT22;6416;52.182;7.650;2023-04-25T07:51:53;14.60;72.70
12704;DHT22;6416;52.182;7.650;2023-04-25T07:54:18;14.90;72.90
12704;DHT22;6416;52.182;7.650;2023-04-25T07:56:44;15.40;73.20
12704;DHT22;6416;52.182;7.650;2023-04-25T07:59:09;16.00;73.40
12704;DHT22;6416;52.182;7.650;2023-04-25T08:01:34;16.50;74.10
12704;DHT22;6416;52.182;7.650;2023-04-25T08:04:00;17.20;74.90
12704;DHT22;6416;52.182;7.650;2023-04-25T08:06:25;17.90;75.40
12704;DHT22;6416;52.182;7.650;2023-04-25T08:08:51;18.60;75.10
12704;DHT22;6416;52.182;7.650;2023-04-25T08:11:17;19.30;73.90
12704;DHT22;6416;52.182;7.650;2023-04-25T08:13:42;20.00;73.10
12704;DHT22;6416;52.182;7.650;2023-04-25T08:16:08;20.60;71.30
12704;DHT22;6416;52.182;7.650;2023-04-25T08:18:33;21.20;70.60
12704;DHT22;6416;52.182;7.650;2023-04-25T08:20:58;21.80;69.60
12704;DHT22;6416;52.182;7.650;2023-04-25T08:23:24;22.30;68.80
12704;DHT22;6416;52.182;7.650;2023-04-25T08:25:49;22.60;67.40
12704;DHT22;6416;52.182;7.650;2023-04-25T08:28:15;22.90;64.90
12704;DHT22;6416;52.182;7.650;2023-04-25T08:30:40;23.20;63.80
12704;DHT22;6416;52.182;7.650;2023-04-25T08:33:06;23.20;62.50
12704;DHT22;6416;52.182;7.650;2023-04-25T08:35:32;23.30;62.50
12704;DHT22;6416;52.182;7.650;2023-04-25T08:37:58;23.40;62.10
12704;DHT22;6416;52.182;7.650;2023-04-25T08:40:27;23.40;60.50
12704;DHT22;6416;52.182;7.650;2023-04-25T08:42:54;23.40;58.30
12704;DHT22;6416;52.182;7.650;2023-04-25T08:45:20;23.50;60.40
12704;DHT22;6416;52.182;7.650;2023-04-25T08:47:46;23.50;59.70
12704;DHT22;6416;52.182;7.650;2023-04-25T08:50:12;23.50;59.00
12704;DHT22;6416;52.182;7.650;2023-04-25T08:52:43;23.50;57.80
12704;DHT22;6416;52.182;7.650;2023-04-25T08:55:09;23.30;55.80
12704;DHT22;6416;52.182;7.650;2023-04-25T08:57:37;23.30;58.00
12704;DHT22;6416;52.182;7.650;2023-04-25T09:00:03;23.40;58.30
12704;DHT22;6416;52.182;7.650;2023-04-25T09:02:29;23.70;58.80
12704;DHT22;6416;52.182;7.650;2023-04-25T09:04:55;24.00;59.80
12704;DHT22;6416;52.182;7.650;2023-04-25T09:07:21;24.30;59.00
12704;DHT22;6416;52.182;7.650;2023-04-25T09:09:47;24.50;57.40
12704;DHT22;6416;52.182;7.650;2023-04-25T09:12:13;24.40;55.30
12704;DHT22;6416;52.182;7.650;2023-04-25T09:14:38;24.10;53.40
12704;DHT22;6416;52.182;7.650;2023-04-25T09:17:04;23.70;52.20
12704;DHT22;6416;52.182;7.650;2023-04-25T09:19:32;23.50;53.20
12704;DHT22;6416;52.182;7.650;2023-04-25T09:21:59;23.60;55.50
12704;DHT22;6416;52.182;7.650;2023-04-25T09:24:31;23.80;57.30
12704;DHT22;6416;52.182;7.650;2023-04-25T09:26:57;24.30;56.00
12704;DHT22;6416;52.182;7.650;2023-04-25T09:29:30;24.70;58.20
12704;DHT22;6416;52.182;7.650;2023-04-25T09:32:21;25.10;54.50
12704;DHT22;6416;52.182;7.650;2023-04-25T09:34:49;25.40;52.50
12704;DHT22;6416;52.182;7.650;2023-04-25T09:37:26;25.60;56.30
12704;DHT22;6416;52.182;7.650;2023-04-25T09:39:54;26.00;52.20
12704;DHT22;6416;52.182;7.650;2023-04-25T09:42:25;26.20;54.40
12704;DHT22;6416;52.182;7.650;2023-04-25T09:44:55;26.30;51.70
12704;DHT22;6416;52.182;7.650;2023-04-25T09:47:22;26.40;51.80
12704;DHT22;6416;52.182;7.650;2023-04-25T09:49:48;26.50;53.70
12704;DHT22;6416;52.182;7.650;2023-04-25T09:52:18;26.70;53.60
12704;DHT22;6416;52.182;7.650;2023-04-25T09:54:45;26.90;51.50
12704;DHT22;6416;52.182;7.650;2023-04-25T09:57:12;26.90;51.70
12704;DHT22;6416;52.182;7.650;2023-04-25T09:59:39;26.90;49.90
12704;DHT22;6416;52.182;7.650;2023-04-25T10:02:08;26.60;48.30
12704;DHT22;6416;52.182;7.650;2023-04-25T10:04:35;26.20;47.00
12704;DHT22;6416;52.182;7.650;2023-04-25T10:07:02;25.70;46.20
12704;DHT22;6416;52.182;7.650;2023-04-25T10:09:29;25.20;45.90
12704;DHT22;6416;52.182;7.650;2023-04-25T10:11:56;24.60;45.80
12704;DHT22;6416;52.182;7.650;2023-04-25T10:14:22;24.10;45.90
12704;DHT22;6416;52.182;7.650;2023-04-25T10:16:48;23.50;46.10
12704;DHT22;6416;52.182;7.650;2023-04-25T10:19:14;23.10;45.90
12704;DHT22;6416;52.182;7.650;2023-04-25T10:21:48;22.60;46.20
12704;DHT22;6416;52.182;7.650;2023-04-25T10:24:15;22.20;45.40
12704;DHT22;6416;52.182;7.650;2023-04-25T10:26:41;21.80;46.90
12704;DHT22;6416;52.182;7.650;2023-04-25T10:29:06;21.50;47.10
12704;DHT22;6416;52.182;7.650;2023-04-25T10:31:32;21.10;47.10
12704;DHT22;6416;52.182;7.650;2023-04-25T10:33:59;20.90;47.10
12704;DHT22;6416;52.182;7.650;2023-04-25T10:36:24;20.60;47.00
12704;DHT22;6416;52.182;7.650;2023-04-25T10:38:51;20.40;47.50
12704;DHT22;6416;52.182;7.650;2023-04-25T10:41:20;20.20;47.70
12704;DHT22;6416;52.182;7.650;2023-04-25T10:43:46;20.00;47.20
12704;DHT22;6416;52.182;7.650;2023-04-25T10:49:01;20.20;51.30
12704;DHT22;6416;52.182;7.650;2023-04-25T10:51:34;20.60;51.20
12704;DHT22;6416;52.182;7.650;2023-04-25T10:56:30;21.70;50.00
12704;DHT22;6416;52.182;7.650;2023-04-25T10:59:16;22.00;44.90
12704;DHT22;6416;52.182;7.650;2023-04-25T11:01:43;22.00;45.90
12704;DHT22;6416;52.182;7.650;2023-04-25T11:04:31;21.90;47.30
12704;DHT22;6416;52.182;7.650;2023-04-25T11:09:39;21.60;45.00
12704;DHT22;6416;52.182;7.650;2023-04-25T11:12:08;21.30;46.80
12704;DHT22;6416;52.182;7.650;2023-04-25T11:14:33;21.10;46.50
12704;DHT22;6416;52.182;7.650;2023-04-25T11:16:59;20.80;46.60
12704;DHT22;6416;52.182;7.650;2023-04-25T11:19:26;20.50;46.60
12704;DHT22;6416;52.182;7.650;2023-04-25T11:21:56;20.40;46.90
12704;DHT22;6416;52.182;7.650;2023-04-25T11:24:33;20.10;46.20
12704;DHT22;6416;52.182;7.650;2023-04-25T11:26:59;20.10;46.10
12704;DHT22;6416;52.182;7.650;2023-04-25T11:29:29;20.10;49.00
12704;DHT22;6416;52.182;7.650;2023-04-25T11:31:55;20.50;51.20
12704;DHT22;6416;52.182;7.650;2023-04-25T11:34:21;21.00;54.70
12704;DHT22;6416;52.182;7.650;2023-04-25T11:36:46;21.70;56.20
12704;DHT22;6416;52.182;7.650;2023-04-25T11:39:12;22.50;56.90
12704;DHT22;6416;52.182;7.650;2023-04-25T11:41:38;23.30;57.30
12704;DHT22;6416;52.182;7.650;2023-04-25T11:44:04;24.20;57.10
12704;DHT22;6416;52.182;7.650;2023-04-25T11:46:30;24.90;55.90
12704;DHT22;6416;52.182;7.650;2023-04-25T11:48:56;25.60;54.80
12704;DHT22;6416;52.182;7.650;2023-04-25T11:51:22;26.30;54.60
12704;DHT22;6416;52.182;7.650;2023-04-25T11:53:47;26.90;54.50
12704;DHT22;6416;52.182;7.650;2023-04-25T11:56:13;27.50;55.00
12704;DHT22;6416;52.182;7.650;2023-04-25T12:01:33;28.70;48.00
12704;DHT22;6416;52.182;7.650;2023-04-25T12:04:09;29.00;49.60
12704;DHT22;6416;52.182;7.650;2023-04-25T12:06:39;29.00;48.60
12704;DHT22;6416;52.182;7.650;2023-04-25T12:09:08;28.90;45.40
12704;DHT22;6416;52.182;7.650;2023-04-25T12:11:47;28.60;44.00
12704;DHT22;6416;52.182;7.650;2023-04-25T12:14:25;28.10;41.20
12704;DHT22;6416;52.182;7.650;2023-04-25T12:16:51;27.60;41.00
12704;DHT22;6416;52.182;7.650;2023-04-25T12:19:17;27.10;42.90
12704;DHT22;6416;52.182;7.650;2023-04-25T12:21:43;26.70;43.00
12704;DHT22;6416;52.182;7.650;2023-04-25T12:24:21;26.20;42.80
12704;DHT22;6416;52.182;7.650;2023-04-25T12:26:58;25.80;40.40
12704;DHT22;6416;52.182;7.650;2023-04-25T12:29:25;25.50;43.80
12704;DHT22;6416;52.182;7.650;2023-04-25T12:31:52;25.40;45.70
12704;DHT22;6416;52.182;7.650;2023-04-25T12:34:18;25.60;47.50
12704;DHT22;6416;52.182;7.650;2023-04-25T12:36:44;25.80;49.00
12704;DHT22;6416;52.182;7.650;2023-04-25T12:39:17;26.10;49.30
12704;DHT22;6416;52.182;7.650;2023-04-25T12:41:44;26.50;47.60
12704;DHT22;6416;52.182;7.650;2023-04-25T12:44:10;26.90;49.30
12704;DHT22;6416;52.182;7.650;2023-04-25T12:46:36;27.30;49.60
12704;DHT22;6416;52.182;7.650;2023-04-25T12:49:01;27.60;48.70
12704;DHT22;6416;52.182;7.650;2023-04-25T12:51:27;27.70;47.00
12704;DHT22;6416;52.182;7.650;2023-04-25T12:53:52;27.70;45.50
12704;DHT22;6416;52.182;7.650;2023-04-25T12:56:18;27.40;43.50
12704;DHT22;6416;52.182;7.650;2023-04-25T12:58:43;27.00;42.50
12704;DHT22;6416;52.182;7.650;2023-04-25T13:01:10;26.60;41.40
12704;DHT22;6416;52.182;7.650;2023-04-25T13:03:35;26.10;40.90
12704;DHT22;6416;52.182;7.650;2023-04-25T13:06:01;25.50;40.80
12704;DHT22;6416;52.182;7.650;2023-04-25T13:08:26;25.00;41.10
12704;DHT22;6416;52.182;7.650;2023-04-25T13:10:52;24.50;41.10
12704;DHT22;6416;52.182;7.650;2023-04-25T13:13:17;24.00;41.40
12704;DHT22;6416;52.182;7.650;2023-04-25T13:15:43;23.60;41.60
12704;DHT22;6416;52.182;7.650;2023-04-25T13:18:09;23.00;41.90
12704;DHT22;6416;52.182;7.650;2023-04-25T13:20:34;22.60;42.20
12704;DHT22;6416;52.182;7.650;2023-04-25T13:23:00;22.10;42.60
12704;DHT22;6416;52.182;7.650;2023-04-25T13:25:25;21.70;43.20
12704;DHT22;6416;52.182;7.650;2023-04-25T13:27:51;21.40;44.00
12704;DHT22;6416;52.182;7.650;2023-04-25T13:30:16;21.20;44.60
12704;DHT22;6416;52.182;7.650;2023-04-25T13:32:42;20.90;45.20
12704;DHT22;6416;52.182;7.650;2023-04-25T13:35:10;20.80;45.80
12704;DHT22;6416;52.182;7.650;2023-04-25T13:37:37;20.80;45.70
12704;DHT22;6416;52.182;7.650;2023-04-25T13:40:08;20.70;45.70
12704;DHT22;6416;52.182;7.650;2023-04-25T13:42:33;20.60;45.40
12704;DHT22;6416;52.182;7.650;2023-04-25T13:44:59;20.60;46.30
12704;DHT22;6416;52.182;7.650;2023-04-25T13:47:25;20.60;46.80
12704;DHT22;6416;52.182;7.650;2023-04-25T13:49:51;20.60;46.50
12704;DHT22;6416;52.182;7.650;2023-04-25T13:52:17;20.60;46.60
12704;DHT22;6416;52.182;7.650;2023-04-25T13:54:42;20.50;46.50
12704;DHT22;6416;52.182;7.650;2023-04-25T13:57:08;20.50;46.40
12704;DHT22;6416;52.182;7.650;2023-04-25T13:59:33;20.40;46.20
12704;DHT22;6416;52.182;7.650;2023-04-25T14:01:59;20.40;46.40
12704;DHT22;6416;52.182;7.650;2023-04-25T14:04:24;20.30;46.70
12704;DHT22;6416;52.182;7.650;2023-04-25T14:06:50;20.30;46.60
12704;DHT22;6416;52.182;7.650;2023-04-25T14:09:16;20.20;46.60
12704;DHT22;6416;52.182;7.650;2023-04-25T14:11:41;20.30;47.00
12704;DHT22;6416;52.182;7.650;2023-04-25T14:14:07;20.20;46.80
12704;DHT22;6416;52.182;7.650;2023-04-25T14:16:33;20.30;46.20
12704;DHT22;6416;52.182;7.650;2023-04-25T14:18:59;20.20;46.00
12704;DHT22;6416;52.182;7.650;2023-04-25T14:21:24;20.20;46.10
12704;DHT22;6416;52.182;7.650;2023-04-25T14:23:49;20.20;45.80
12704;DHT22;6416;52.182;7.650;2023-04-25T14:26:15;20.10;45.90
12704;DHT22;6416;52.182;7.650;2023-04-25T14:28:40;20.10;45.90
12704;DHT22;6416;52.182;7.650;2023-04-25T14:31:06;20.00;45.30
12704;DHT22;6416;52.182;7.650;2023-04-25T14:33:31;19.90;45.30
12704;DHT22;6416;52.182;7.650;2023-04-25T14:35:57;19.80;45.30
12704;DHT22;6416;52.182;7.650;2023-04-25T14:38:22;19.60;45.30
12704;DHT22;6416;52.182;7.650;2023-04-25T14:40:48;19.50;45.50
12704;DHT22;6416;52.182;7.650;2023-04-25T14:43:14;19.40;45.70
12704;DHT22;6416;52.182;7.650;2023-04-25T14:45:39;19.20;46.10
12704;DHT22;6416;52.182;7.650;2023-04-25T14:48:05;19.10;46.40
12704;DHT22;6416;52.182;7.650;2023-04-25T14:50:30;19.00;46.50
12704;DHT22;6416;52.182;7.650;2023-04-25T14:52:56;18.80;46.80
12704;DHT22;6416;52.182;7.650;2023-04-25T14:55:21;18.70;47.30
12704;DHT22;6416;52.182;7.650;2023-04-25T14:57:47;18.60;47.60
12704;DHT22;6416;52.182;7.650;2023-04-25T15:00:12;18.60;47.90
12704;DHT22;6416;52.182;7.650;2023-04-25T15:02:38;18.40;48.00
12704;DHT22;6416;52.182;7.650;2023-04-25T15:05:04;18.30;48.10
12704;DHT22;6416;52.182;7.650;2023-04-25T15:07:29;18.20;48.00
12704;DHT22;6416;52.182;7.650;2023-04-25T15:09:55;18.10;47.90
12704;DHT22;6416;52.182;7.650;2023-04-25T15:12:20;18.10;48.10
12704;DHT22;6416;52.182;7.650;2023-04-25T15:14:46;17.90;48.10
12704;DHT22;6416;52.182;7.650;2023-04-25T15:17:11;17.80;48.20
12704;DHT22;6416;52.182;7.650;2023-04-25T15:19:37;17.80;48.50
12704;DHT22;6416;52.182;7.650;2023-04-25T15:22:02;17.80;48.80
12704;DHT22;6416;52.182;7.650;2023-04-25T15:24:28;17.70;49.00
12704;DHT22;6416;52.182;7.650;2023-04-25T15:26:54;17.80;49.30
12704;DHT22;6416;52.182;7.650;2023-04-25T15:29:19;17.80;49.30
12704;DHT22;6416;52.182;7.650;2023-04-25T15:31:45;17.80;49.20
12704;DHT22;6416;52.182;7.650;2023-04-25T15:34:10;17.80;49.00
12704;DHT22;6416;52.182;7.650;2023-04-25T15:36:36;17.80;48.60
12704;DHT22;6416;52.182;7.650;2023-04-25T15:39:01;17.80;48.40
12704;DHT22;6416;52.182;7.650;2023-04-25T15:41:27;17.80;48.60
12704;DHT22;6416;52.182;7.650;2023-04-25T15:43:53;17.70;48.40
12704;DHT22;6416;52.182;7.650;2023-04-25T15:46:19;17.70;48.00
12704;DHT22;6416;52.182;7.650;2023-04-25T15:48:44;17.60;47.80